sensor_id;sensor_type;location;lat;lon;timestamp;P1;durP1;ratioP1;P2;durP2;ratioP2
8938;SDS011;4504;48.810;9.172;2023-11-21T00:01:25;122.93;;;5.30;;
8938;SDS011;4504;48.810;9.172;2023-11-21T00:03:52;123.13;;;5.40;;
8938;SDS011;4504;48.810;9.172;2023-11-21T00:06:21;122.82;;;5.30;;
8938;SDS011;4504;48.810;9.172;2023-11-21T00:08:48;123.38;;;5.20;;
8938;SDS011;4504;48.810;9.172;2023-11-21T00:11:15;123.28;;;5.50;;
8938;SDS011;4504;48.810;9.172;2023-11-21T00:13:42;122.93;;;5.25;;
8938;SDS011;4504;48.810;9.172;2023-11-21T00:16:09;124.47;;;5.38;;
8938;SDS011;4504;48.810;9.172;2023-11-21T00:18:36;122.78;;;5.35;;
8938;SDS011;4504;48.810;9.172;2023-11-21T00:21:03;123.53;;;5.38;;
8938;SDS011;4504;48.810;9.172;2023-11-21T00:23:31;126.30;;;5.30;;
8938;SDS011;4504;48.810;9.172;2023-11-21T00:25:58;124.10;;;5.30;;
8938;SDS011;4504;48.810;9.172;2023-11-21T00:28:25;123.47;;;5.13;;
8938;SDS011;4504;48.810;9.172;2023-11-21T00:30:53;124.47;;;5.60;;
8938;SDS011;4504;48.810;9.172;2023-11-21T00:33:20;122.43;;;5.32;;
8938;SDS011;4504;48.810;9.172;2023-11-21T00:35:47;123.47;;;5.60;;
8938;SDS011;4504;48.810;9.172;2023-11-21T00:38:14;122.25;;;5.50;;
8938;SDS011;4504;48.810;9.172;2023-11-21T00:40:42;123.78;;;5.80;;
8938;SDS011;4504;48.810;9.172;2023-11-21T00:43:09;123.30;;;5.10;;
8938;SDS011;4504;48.810;9.172;2023-11-21T00:45:36;122.25;;;5.20;;
8938;SDS011;4504;48.810;9.172;2023-11-21T00:48:03;122.43;;;5.30;;
8938;SDS011;4504;48.810;9.172;2023-11-21T00:50:31;125.28;;;5.60;;
8938;SDS011;4504;48.810;9.172;2023-11-21T00:52:58;122.97;;;5.50;;
8938;SDS011;4504;48.810;9.172;2023-11-21T00:55:27;123.43;;;5.10;;
8938;SDS011;4504;48.810;9.172;2023-11-21T00:57:56;123.97;;;5.40;;
8938;SDS011;4504;48.810;9.172;2023-11-21T01:00:23;123.82;;;5.38;;
8938;SDS011;4504;48.810;9.172;2023-11-21T01:02:50;124.57;;;5.75;;
8938;SDS011;4504;48.810;9.172;2023-11-21T01:05:17;123.43;;;5.32;;
8938;SDS011;4504;48.810;9.172;2023-11-21T01:07:45;123.50;;;5.35;;
8938;SDS011;4504;48.810;9.172;2023-11-21T01:10:12;123.60;;;5.05;;
8938;SDS011;4504;48.810;9.172;2023-11-21T01:12:39;124.78;;;5.70;;
8938;SDS011;4504;48.810;9.172;2023-11-21T01:15:08;123.93;;;5.05;;
8938;SDS011;4504;48.810;9.172;2023-11-21T01:17:37;124.07;;;5.15;;
8938;SDS011;4504;48.810;9.172;2023-11-21T01:20:06;123.55;;;5.30;;
8938;SDS011;4504;48.810;9.172;2023-11-21T01:22:37;126.63;;;5.70;;
8938;SDS011;4504;48.810;9.172;2023-11-21T01:25:04;123.53;;;5.32;;
8938;SDS011;4504;48.810;9.172;2023-11-21T01:27:32;122.93;;;5.32;;
8938;SDS011;4504;48.810;9.172;2023-11-21T01:30:00;122.53;;;5.20;;
8938;SDS011;4504;48.810;9.172;2023-11-21T01:32:30;124.25;;;5.05;;
8938;SDS011;4504;48.810;9.172;2023-11-21T01:34:57;125.20;;;5.55;;
8938;SDS011;4504;48.810;9.172;2023-11-21T01:37:25;125.68;;;5.40;;
8938;SDS011;4504;48.810;9.172;2023-11-21T01:39:53;124.43;;;5.15;;
8938;SDS011;4504;48.810;9.172;2023-11-21T01:42:21;123.05;;;5.30;;
8938;SDS011;4504;48.810;9.172;2023-11-21T01:44:48;123.93;;;5.60;;
8938;SDS011;4504;48.810;9.172;2023-11-21T01:47:15;123.82;;;5.07;;
8938;SDS011;4504;48.810;9.172;2023-11-21T01:49:44;123.22;;;5.00;;
8938;SDS011;4504;48.810;9.172;2023-11-21T01:52:12;122.93;;;5.32;;
8938;SDS011;4504;48.810;9.172;2023-11-21T01:54:40;122.93;;;5.20;;
8938;SDS011;4504;48.810;9.172;2023-11-21T01:57:07;123.43;;;5.18;;
8938;SDS011;4504;48.810;9.172;2023-11-21T01:59:35;122.80;;;5.00;;
8938;SDS011;4504;48.810;9.172;2023-11-21T02:02:04;122.03;;;5.35;;
8938;SDS011;4504;48.810;9.172;2023-11-21T02:04:32;123.05;;;5.65;;
8938;SDS011;4504;48.810;9.172;2023-11-21T02:07:02;122.15;;;5.45;;
8938;SDS011;4504;48.810;9.172;2023-11-21T02:09:31;123.40;;;5.25;;
8938;SDS011;4504;48.810;9.172;2023-11-21T02:11:58;123.10;;;5.32;;
8938;SDS011;4504;48.810;9.172;2023-11-21T02:14:28;123.88;;;6.30;;
8938;SDS011;4504;48.810;9.172;2023-11-21T02:16:56;122.72;;;5.10;;
8938;SDS011;4504;48.810;9.172;2023-11-21T02:19:23;123.97;;;5.40;;
8938;SDS011;4504;48.810;9.172;2023-11-21T02:21:51;124.03;;;5.50;;
8938;SDS011;4504;48.810;9.172;2023-11-21T02:24:20;122.60;;;5.10;;
8938;SDS011;4504;48.810;9.172;2023-11-21T02:26:48;124.05;;;5.20;;
8938;SDS011;4504;48.810;9.172;2023-11-21T02:29:16;122.38;;;5.43;;
8938;SDS011;4504;48.810;9.172;2023-11-21T02:31:47;122.97;;;5.40;;
8938;SDS011;4504;48.810;9.172;2023-11-21T02:34:15;122.65;;;5.20;;
8938;SDS011;4504;48.810;9.172;2023-11-21T02:36:42;123.43;;;5.63;;
8938;SDS011;4504;48.810;9.172;2023-11-21T02:39:11;122.97;;;5.70;;
8938;SDS011;4504;48.810;9.172;2023-11-21T02:41:39;123.13;;;5.40;;
8938;SDS011;4504;48.810;9.172;2023-11-21T02:44:07;122.30;;;5.05;;
8938;SDS011;4504;48.810;9.172;2023-11-21T02:46:35;122.28;;;5.20;;
8938;SDS011;4504;48.810;9.172;2023-11-21T02:49:02;123.97;;;5.60;;
8938;SDS011;4504;48.810;9.172;2023-11-21T02:51:31;123.05;;;5.10;;
8938;SDS011;4504;48.810;9.172;2023-11-21T02:53:59;122.90;;;5.82;;
8938;SDS011;4504;48.810;9.172;2023-11-21T02:56:33;122.43;;;5.30;;
8938;SDS011;4504;48.810;9.172;2023-11-21T02:59:03;122.90;;;5.30;;
8938;SDS011;4504;48.810;9.172;2023-11-21T03:01:30;128.02;;;5.30;;
8938;SDS011;4504;48.810;9.172;2023-11-21T03:03:57;122.40;;;5.30;;
8938;SDS011;4504;48.810;9.172;2023-11-21T03:06:25;121.55;;;5.07;;
8938;SDS011;4504;48.810;9.172;2023-11-21T03:08:52;127.30;;;5.20;;
8938;SDS011;4504;48.810;9.172;2023-11-21T03:11:19;125.40;;;5.30;;
8938;SDS011;4504;48.810;9.172;2023-11-21T03:13:46;122.22;;;5.38;;
8938;SDS011;4504;48.810;9.172;2023-11-21T03:16:15;122.57;;;5.20;;
8938;SDS011;4504;48.810;9.172;2023-11-21T03:18:42;122.40;;;5.40;;
8938;SDS011;4504;48.810;9.172;2023-11-21T03:21:09;123.18;;;5.57;;
8938;SDS011;4504;48.810;9.172;2023-11-21T03:23:37;122.13;;;5.00;;
8938;SDS011;4504;48.810;9.172;2023-11-21T03:26:05;122.00;;;5.30;;
8938;SDS011;4504;48.810;9.172;2023-11-21T03:28:34;123.57;;;5.50;;
8938;SDS011;4504;48.810;9.172;2023-11-21T03:31:02;122.90;;;5.20;;
8938;SDS011;4504;48.810;9.172;2023-11-21T03:33:30;123.60;;;5.70;;
8938;SDS011;4504;48.810;9.172;2023-11-21T03:35:57;122.00;;;5.25;;
8938;SDS011;4504;48.810;9.172;2023-11-21T03:38:25;121.63;;;5.03;;
8938;SDS011;4504;48.810;9.172;2023-11-21T03:40:52;122.72;;;5.13;;
8938;SDS011;4504;48.810;9.172;2023-11-21T03:43:19;122.43;;;5.00;;
8938;SDS011;4504;48.810;9.172;2023-11-21T03:45:46;123.25;;;5.43;;
8938;SDS011;4504;48.810;9.172;2023-11-21T03:48:13;121.55;;;5.28;;
8938;SDS011;4504;48.810;9.172;2023-11-21T03:50:43;126.80;;;5.20;;
8938;SDS011;4504;48.810;9.172;2023-11-21T03:53:09;125.45;;;5.43;;
8938;SDS011;4504;48.810;9.172;2023-11-21T03:55:36;121.95;;;5.13;;
8938;SDS011;4504;48.810;9.172;2023-11-21T03:58:03;122.22;;;5.07;;
8938;SDS011;4504;48.810;9.172;2023-11-21T04:00:30;122.22;;;5.00;;
8938;SDS011;4504;48.810;9.172;2023-11-21T04:02:58;122.70;;;5.55;;
8938;SDS011;4504;48.810;9.172;2023-11-21T04:05:24;121.70;;;5.00;;
8938;SDS011;4504;48.810;9.172;2023-11-21T04:07:53;122.68;;;5.00;;
8938;SDS011;4504;48.810;9.172;2023-11-21T04:10:20;121.72;;;5.00;;
8938;SDS011;4504;48.810;9.172;2023-11-21T04:12:47;122.60;;;5.75;;
8938;SDS011;4504;48.810;9.172;2023-11-21T04:15:14;121.95;;;5.20;;
8938;SDS011;4504;48.810;9.172;2023-11-21T04:17:42;122.43;;;5.07;;
8938;SDS011;4504;48.810;9.172;2023-11-21T04:20:10;122.60;;;5.47;;
8938;SDS011;4504;48.810;9.172;2023-11-21T04:22:38;122.50;;;5.22;;
8938;SDS011;4504;48.810;9.172;2023-11-21T04:25:09;121.80;;;5.50;;
8938;SDS011;4504;48.810;9.172;2023-11-21T04:27:39;122.82;;;5.18;;
8938;SDS011;4504;48.810;9.172;2023-11-21T04:30:09;122.00;;;5.50;;
8938;SDS011;4504;48.810;9.172;2023-11-21T04:32:36;123.07;;;4.97;;
8938;SDS011;4504;48.810;9.172;2023-11-21T04:35:04;122.13;;;5.13;;
8938;SDS011;4504;48.810;9.172;2023-11-21T04:37:33;122.53;;;5.20;;
8938;SDS011;4504;48.810;9.172;2023-11-21T04:40:01;121.85;;;5.18;;
8938;SDS011;4504;48.810;9.172;2023-11-21T04:42:33;123.10;;;5.15;;
8938;SDS011;4504;48.810;9.172;2023-11-21T04:45:01;123.72;;;5.63;;
8938;SDS011;4504;48.810;9.172;2023-11-21T04:47:32;121.13;;;4.97;;
8938;SDS011;4504;48.810;9.172;2023-11-21T04:49:59;122.40;;;5.40;;
8938;SDS011;4504;48.810;9.172;2023-11-21T04:52:26;121.78;;;5.22;;
8938;SDS011;4504;48.810;9.172;2023-11-21T04:54:53;121.22;;;5.20;;
8938;SDS011;4504;48.810;9.172;2023-11-21T04:57:22;123.47;;;5.50;;
8938;SDS011;4504;48.810;9.172;2023-11-21T04:59:50;123.63;;;5.63;;
8938;SDS011;4504;48.810;9.172;2023-11-21T05:02:17;122.07;;;5.32;;
8938;SDS011;4504;48.810;9.172;2023-11-21T05:04:46;121.03;;;5.10;;
8938;SDS011;4504;48.810;9.172;2023-11-21T05:07:13;121.63;;;5.15;;
8938;SDS011;4504;48.810;9.172;2023-11-21T05:09:41;122.03;;;5.20;;
8938;SDS011;4504;48.810;9.172;2023-11-21T05:12:09;122.18;;;5.20;;
8938;SDS011;4504;48.810;9.172;2023-11-21T05:14:37;121.75;;;5.00;;
8938;SDS011;4504;48.810;9.172;2023-11-21T05:17:05;121.65;;;5.10;;
8938;SDS011;4504;48.810;9.172;2023-11-21T05:19:33;123.00;;;5.53;;
8938;SDS011;4504;48.810;9.172;2023-11-21T05:22:01;122.13;;;5.05;;
8938;SDS011;4504;48.810;9.172;2023-11-21T05:24:28;122.07;;;5.30;;
8938;SDS011;4504;48.810;9.172;2023-11-21T05:26:55;123.18;;;5.68;;
8938;SDS011;4504;48.810;9.172;2023-11-21T05:29:23;122.22;;;5.20;;
8938;SDS011;4504;48.810;9.172;2023-11-21T05:31:50;121.55;;;4.97;;
8938;SDS011;4504;48.810;9.172;2023-11-21T05:34:19;121.22;;;5.20;;
8938;SDS011;4504;48.810;9.172;2023-11-21T05:36:49;122.22;;;5.05;;
8938;SDS011;4504;48.810;9.172;2023-11-21T05:39:16;121.78;;;5.22;;
8938;SDS011;4504;48.810;9.172;2023-11-21T05:41:44;121.82;;;5.15;;
8938;SDS011;4504;48.810;9.172;2023-11-21T05:44:11;122.93;;;5.13;;
8938;SDS011;4504;48.810;9.172;2023-11-21T05:46:39;123.07;;;5.45;;
8938;SDS011;4504;48.810;9.172;2023-11-21T05:49:08;122.78;;;5.35;;
8938;SDS011;4504;48.810;9.172;2023-11-21T05:51:37;122.03;;;5.45;;
8938;SDS011;4504;48.810;9.172;2023-11-21T05:54:04;122.78;;;5.05;;
8938;SDS011;4504;48.810;9.172;2023-11-21T05:56:31;121.63;;;5.15;;
8938;SDS011;4504;48.810;9.172;2023-11-21T05:58:58;121.72;;;5.10;;
8938;SDS011;4504;48.810;9.172;2023-11-21T06:01:25;121.93;;;5.43;;
8938;SDS011;4504;48.810;9.172;2023-11-21T06:03:53;122.82;;;5.30;;
8938;SDS011;4504;48.810;9.172;2023-11-21T06:06:20;122.82;;;5.60;;
8938;SDS011;4504;48.810;9.172;2023-11-21T06:08:51;122.28;;;5.30;;
8938;SDS011;4504;48.810;9.172;2023-11-21T06:11:18;123.38;;;5.20;;
8938;SDS011;4504;48.810;9.172;2023-11-21T06:13:45;122.03;;;5.30;;
8938;SDS011;4504;48.810;9.172;2023-11-21T06:16:13;122.65;;;5.60;;
8938;SDS011;4504;48.810;9.172;2023-11-21T06:18:42;122.28;;;5.25;;
8938;SDS011;4504;48.810;9.172;2023-11-21T06:21:10;122.00;;;5.25;;
8938;SDS011;4504;48.810;9.172;2023-11-21T06:23:37;122.00;;;5.35;;
8938;SDS011;4504;48.810;9.172;2023-11-21T06:26:05;121.30;;;5.10;;
8938;SDS011;4504;48.810;9.172;2023-11-21T06:28:34;119.97;;;5.35;;
8938;SDS011;4504;48.810;9.172;2023-11-21T06:31:01;121.10;;;4.90;;
8938;SDS011;4504;48.810;9.172;2023-11-21T06:33:30;120.45;;;5.35;;
8938;SDS011;4504;48.810;9.172;2023-11-21T06:35:57;121.45;;;5.03;;
8938;SDS011;4504;48.810;9.172;2023-11-21T06:38:24;122.28;;;5.30;;
8938;SDS011;4504;48.810;9.172;2023-11-21T06:40:53;121.75;;;5.40;;
8938;SDS011;4504;48.810;9.172;2023-11-21T06:43:22;121.07;;;5.10;;
8938;SDS011;4504;48.810;9.172;2023-11-21T06:45:49;121.18;;;5.10;;
8938;SDS011;4504;48.810;9.172;2023-11-21T06:48:15;121.18;;;4.93;;
8938;SDS011;4504;48.810;9.172;2023-11-21T06:50:43;121.13;;;5.30;;
8938;SDS011;4504;48.810;9.172;2023-11-21T06:53:10;121.32;;;5.35;;
8938;SDS011;4504;48.810;9.172;2023-11-21T06:55:37;120.78;;;5.40;;
8938;SDS011;4504;48.810;9.172;2023-11-21T06:58:04;121.07;;;5.05;;
8938;SDS011;4504;48.810;9.172;2023-11-21T07:00:32;120.38;;;5.10;;
8938;SDS011;4504;48.810;9.172;2023-11-21T07:02:59;125.07;;;6.68;;
8938;SDS011;4504;48.810;9.172;2023-11-21T07:05:26;120.13;;;5.20;;
8938;SDS011;4504;48.810;9.172;2023-11-21T07:07:53;121.68;;;5.10;;
8938;SDS011;4504;48.810;9.172;2023-11-21T07:10:20;121.47;;;5.10;;
8938;SDS011;4504;48.810;9.172;2023-11-21T07:12:48;120.35;;;5.10;;
8938;SDS011;4504;48.810;9.172;2023-11-21T07:15:16;122.18;;;5.53;;
8938;SDS011;4504;48.810;9.172;2023-11-21T07:17:46;121.05;;;5.30;;
8938;SDS011;4504;48.810;9.172;2023-11-21T07:20:13;120.53;;;4.97;;
8938;SDS011;4504;48.810;9.172;2023-11-21T07:22:42;120.78;;;5.20;;
8938;SDS011;4504;48.810;9.172;2023-11-21T07:25:09;121.45;;;5.35;;
8938;SDS011;4504;48.810;9.172;2023-11-21T07:27:37;120.82;;;5.10;;
8938;SDS011;4504;48.810;9.172;2023-11-21T07:30:04;120.90;;;5.32;;
8938;SDS011;4504;48.810;9.172;2023-11-21T07:32:34;123.22;;;5.40;;
8938;SDS011;4504;48.810;9.172;2023-11-21T07:35:02;125.35;;;5.40;;
8938;SDS011;4504;48.810;9.172;2023-11-21T07:37:30;118.78;;;5.25;;
8938;SDS011;4504;48.810;9.172;2023-11-21T07:39:57;120.88;;;5.40;;
8938;SDS011;4504;48.810;9.172;2023-11-21T07:42:24;120.65;;;5.40;;
8938;SDS011;4504;48.810;9.172;2023-11-21T07:44:51;120.13;;;5.22;;
8938;SDS011;4504;48.810;9.172;2023-11-21T07:47:18;121.60;;;5.00;;
8938;SDS011;4504;48.810;9.172;2023-11-21T07:49:45;122.32;;;5.70;;
8938;SDS011;4504;48.810;9.172;2023-11-21T07:52:14;122.05;;;5.43;;
8938;SDS011;4504;48.810;9.172;2023-11-21T07:54:41;120.45;;;5.07;;
8938;SDS011;4504;48.810;9.172;2023-11-21T07:57:11;121.13;;;5.13;;
8938;SDS011;4504;48.810;9.172;2023-11-21T07:59:38;120.93;;;4.88;;
8938;SDS011;4504;48.810;9.172;2023-11-21T08:02:06;123.35;;;5.60;;
8938;SDS011;4504;48.810;9.172;2023-11-21T08:04:33;120.97;;;5.20;;
8938;SDS011;4504;48.810;9.172;2023-11-21T08:07:00;122.68;;;5.75;;
8938;SDS011;4504;48.810;9.172;2023-11-21T08:09:30;120.63;;;5.30;;
8938;SDS011;4504;48.810;9.172;2023-11-21T08:11:58;122.38;;;5.38;;
8938;SDS011;4504;48.810;9.172;2023-11-21T08:14:25;121.95;;;5.68;;
8938;SDS011;4504;48.810;9.172;2023-11-21T08:16:52;120.93;;;5.25;;
8938;SDS011;4504;48.810;9.172;2023-11-21T08:19:22;120.93;;;5.30;;
8938;SDS011;4504;48.810;9.172;2023-11-21T08:21:51;121.45;;;5.20;;
8938;SDS011;4504;48.810;9.172;2023-11-21T08:24:20;120.40;;;5.35;;
8938;SDS011;4504;48.810;9.172;2023-11-21T08:26:48;120.53;;;5.10;;
8938;SDS011;4504;48.810;9.172;2023-11-21T08:29:16;120.43;;;5.00;;
8938;SDS011;4504;48.810;9.172;2023-11-21T08:31:43;119.05;;;5.10;;
8938;SDS011;4504;48.810;9.172;2023-11-21T08:34:12;119.68;;;5.25;;
8938;SDS011;4504;48.810;9.172;2023-11-21T08:36:41;119.50;;;5.20;;
8938;SDS011;4504;48.810;9.172;2023-11-21T08:39:08;126.72;;;5.38;;
8938;SDS011;4504;48.810;9.172;2023-11-21T08:41:36;120.22;;;5.20;;
8938;SDS011;4504;48.810;9.172;2023-11-21T08:44:04;120.10;;;5.03;;
8938;SDS011;4504;48.810;9.172;2023-11-21T08:46:33;121.40;;;5.40;;
8938;SDS011;4504;48.810;9.172;2023-11-21T08:49:02;120.32;;;5.30;;
8938;SDS011;4504;48.810;9.172;2023-11-21T08:51:29;120.72;;;5.10;;
8938;SDS011;4504;48.810;9.172;2023-11-21T08:53:56;120.53;;;5.13;;
8938;SDS011;4504;48.810;9.172;2023-11-21T08:56:26;120.93;;;5.30;;
8938;SDS011;4504;48.810;9.172;2023-11-21T08:58:53;120.45;;;5.00;;
8938;SDS011;4504;48.810;9.172;2023-11-21T09:01:22;119.53;;;5.10;;
8938;SDS011;4504;48.810;9.172;2023-11-21T09:03:50;121.00;;;5.13;;
8938;SDS011;4504;48.810;9.172;2023-11-21T09:06:17;121.00;;;5.10;;
8938;SDS011;4504;48.810;9.172;2023-11-21T09:08:44;119.32;;;5.05;;
8938;SDS011;4504;48.810;9.172;2023-11-21T09:11:11;118.22;;;5.18;;
8938;SDS011;4504;48.810;9.172;2023-11-21T09:13:39;120.07;;;5.10;;
8938;SDS011;4504;48.810;9.172;2023-11-21T09:16:06;121.57;;;5.00;;
8938;SDS011;4504;48.810;9.172;2023-11-21T09:18:35;120.68;;;5.30;;
8938;SDS011;4504;48.810;9.172;2023-11-21T09:21:02;119.85;;;5.20;;
8938;SDS011;4504;48.810;9.172;2023-11-21T09:23:29;119.10;;;4.82;;
8938;SDS011;4504;48.810;9.172;2023-11-21T09:25:56;118.90;;;4.82;;
8938;SDS011;4504;48.810;9.172;2023-11-21T09:28:26;118.20;;;4.85;;
8938;SDS011;4504;48.810;9.172;2023-11-21T09:30:53;121.43;;;5.13;;
8938;SDS011;4504;48.810;9.172;2023-11-21T09:33:20;119.13;;;5.18;;
8938;SDS011;4504;48.810;9.172;2023-11-21T09:35:48;119.07;;;5.00;;
8938;SDS011;4504;48.810;9.172;2023-11-21T09:38:16;118.85;;;4.90;;
8938;SDS011;4504;48.810;9.172;2023-11-21T09:40:43;119.47;;;5.20;;
8938;SDS011;4504;48.810;9.172;2023-11-21T09:43:13;119.70;;;4.95;;
8938;SDS011;4504;48.810;9.172;2023-11-21T09:45:44;120.45;;;5.20;;
8938;SDS011;4504;48.810;9.172;2023-11-21T09:48:13;119.53;;;5.05;;
8938;SDS011;4504;48.810;9.172;2023-11-21T09:50:41;121.28;;;5.20;;
8938;SDS011;4504;48.810;9.172;2023-11-21T09:53:12;122.03;;;5.70;;
8938;SDS011;4504;48.810;9.172;2023-11-21T09:55:44;119.60;;;4.95;;
8938;SDS011;4504;48.810;9.172;2023-11-21T09:58:11;120.22;;;5.00;;
8938;SDS011;4504;48.810;9.172;2023-11-21T10:00:40;120.03;;;5.28;;
8938;SDS011;4504;48.810;9.172;2023-11-21T10:03:09;120.03;;;5.22;;
8938;SDS011;4504;48.810;9.172;2023-11-21T10:05:36;120.45;;;5.20;;
8938;SDS011;4504;48.810;9.172;2023-11-21T10:08:04;120.03;;;5.25;;
8938;SDS011;4504;48.810;9.172;2023-11-21T10:10:36;120.97;;;5.05;;
8938;SDS011;4504;48.810;9.172;2023-11-21T10:13:06;120.32;;;5.45;;
8938;SDS011;4504;48.810;9.172;2023-11-21T10:15:36;121.47;;;5.20;;
8938;SDS011;4504;48.810;9.172;2023-11-21T10:18:03;119.85;;;4.93;;
8938;SDS011;4504;48.810;9.172;2023-11-21T10:20:34;119.60;;;4.80;;
8938;SDS011;4504;48.810;9.172;2023-11-21T10:23:03;120.82;;;5.18;;
8938;SDS011;4504;48.810;9.172;2023-11-21T10:25:32;120.97;;;5.10;;
8938;SDS011;4504;48.810;9.172;2023-11-21T10:28:03;121.38;;;5.20;;
8938;SDS011;4504;48.810;9.172;2023-11-21T10:30:32;122.00;;;5.20;;
8938;SDS011;4504;48.810;9.172;2023-11-21T10:33:02;122.55;;;5.00;;
8938;SDS011;4504;48.810;9.172;2023-11-21T10:35:42;121.93;;;5.00;;
8938;SDS011;4504;48.810;9.172;2023-11-21T10:38:13;122.13;;;5.03;;
8938;SDS011;4504;48.810;9.172;2023-11-21T10:40:41;121.57;;;5.05;;
8938;SDS011;4504;48.810;9.172;2023-11-21T10:43:11;121.13;;;5.07;;
8938;SDS011;4504;48.810;9.172;2023-11-21T10:45:40;121.82;;;5.47;;
8938;SDS011;4504;48.810;9.172;2023-11-21T10:48:08;121.97;;;5.30;;
8938;SDS011;4504;48.810;9.172;2023-11-21T10:50:36;122.28;;;5.80;;
8938;SDS011;4504;48.810;9.172;2023-11-21T10:53:04;122.63;;;5.75;;
8938;SDS011;4504;48.810;9.172;2023-11-21T10:55:31;122.68;;;5.32;;
8938;SDS011;4504;48.810;9.172;2023-11-21T10:58:00;122.22;;;5.43;;
8938;SDS011;4504;48.810;9.172;2023-11-21T11:00:31;121.88;;;5.40;;
8938;SDS011;4504;48.810;9.172;2023-11-21T11:02:59;121.82;;;5.80;;
8938;SDS011;4504;48.810;9.172;2023-11-21T11:05:27;120.75;;;5.50;;
8938;SDS011;4504;48.810;9.172;2023-11-21T11:07:58;119.43;;;5.10;;
8938;SDS011;4504;48.810;9.172;2023-11-21T11:10:26;119.55;;;5.30;;
8938;SDS011;4504;48.810;9.172;2023-11-21T11:12:55;119.53;;;5.07;;
8938;SDS011;4504;48.810;9.172;2023-11-21T11:15:23;119.93;;;5.30;;
8938;SDS011;4504;48.810;9.172;2023-11-21T11:17:53;119.75;;;4.90;;
8938;SDS011;4504;48.810;9.172;2023-11-21T11:20:23;118.63;;;4.80;;
8938;SDS011;4504;48.810;9.172;2023-11-21T11:22:58;119.45;;;4.90;;
8938;SDS011;4504;48.810;9.172;2023-11-21T11:25:38;119.47;;;5.00;;
8938;SDS011;4504;48.810;9.172;2023-11-21T11:28:15;118.70;;;4.90;;
8938;SDS011;4504;48.810;9.172;2023-11-21T11:30:49;118.07;;;4.82;;
8938;SDS011;4504;48.810;9.172;2023-11-21T11:33:28;119.07;;;4.90;;
8938;SDS011;4504;48.810;9.172;2023-11-21T11:36:02;119.47;;;5.13;;
8938;SDS011;4504;48.810;9.172;2023-11-21T11:38:33;118.82;;;5.20;;
8938;SDS011;4504;48.810;9.172;2023-11-21T11:41:01;119.35;;;4.90;;
8938;SDS011;4504;48.810;9.172;2023-11-21T11:43:30;119.47;;;4.93;;
8938;SDS011;4504;48.810;9.172;2023-11-21T11:46:05;119.20;;;5.10;;
8938;SDS011;4504;48.810;9.172;2023-11-21T11:48:36;120.40;;;5.15;;
8938;SDS011;4504;48.810;9.172;2023-11-21T11:51:05;118.15;;;5.20;;
8938;SDS011;4504;48.810;9.172;2023-11-21T11:53:37;119.47;;;5.68;;
8938;SDS011;4504;48.810;9.172;2023-11-21T11:56:19;119.30;;;4.95;;
8938;SDS011;4504;48.810;9.172;2023-11-21T11:58:51;118.75;;;4.93;;
8938;SDS011;4504;48.810;9.172;2023-11-21T12:01:19;120.78;;;5.65;;
8938;SDS011;4504;48.810;9.172;2023-11-21T12:07:04;121.95;;;5.47;;
8938;SDS011;4504;48.810;9.172;2023-11-21T12:09:33;121.95;;;5.80;;
8938;SDS011;4504;48.810;9.172;2023-11-21T12:12:00;119.88;;;5.65;;
8938;SDS011;4504;48.810;9.172;2023-11-21T12:14:30;118.90;;;5.10;;
8938;SDS011;4504;48.810;9.172;2023-11-21T12:16:57;118.53;;;4.68;;
8938;SDS011;4504;48.810;9.172;2023-11-21T12:19:25;118.05;;;5.13;;
8938;SDS011;4504;48.810;9.172;2023-11-21T12:21:52;117.53;;;4.80;;
8938;SDS011;4504;48.810;9.172;2023-11-21T12:24:22;118.20;;;4.80;;
8938;SDS011;4504;48.810;9.172;2023-11-21T12:26:49;118.00;;;4.90;;
8938;SDS011;4504;48.810;9.172;2023-11-21T12:29:16;117.82;;;5.10;;
8938;SDS011;4504;48.810;9.172;2023-11-21T12:31:43;118.97;;;5.50;;
8938;SDS011;4504;48.810;9.172;2023-11-21T12:34:11;117.90;;;5.15;;
8938;SDS011;4504;48.810;9.172;2023-11-21T12:36:38;119.93;;;5.57;;
8938;SDS011;4504;48.810;9.172;2023-11-21T12:39:05;118.80;;;5.50;;
8938;SDS011;4504;48.810;9.172;2023-11-21T12:41:35;120.30;;;5.55;;
8938;SDS011;4504;48.810;9.172;2023-11-21T12:44:02;120.90;;;5.45;;
8938;SDS011;4504;48.810;9.172;2023-11-21T12:46:30;120.68;;;5.50;;
8938;SDS011;4504;48.810;9.172;2023-11-21T12:48:59;119.45;;;5.30;;
8938;SDS011;4504;48.810;9.172;2023-11-21T12:51:26;119.88;;;5.55;;
8938;SDS011;4504;48.810;9.172;2023-11-21T12:53:54;120.93;;;5.90;;
8938;SDS011;4504;48.810;9.172;2023-11-21T12:56:21;119.70;;;5.25;;
8938;SDS011;4504;48.810;9.172;2023-11-21T12:58:53;120.18;;;5.28;;
8938;SDS011;4504;48.810;9.172;2023-11-21T13:01:25;120.43;;;5.70;;
8938;SDS011;4504;48.810;9.172;2023-11-21T13:03:56;120.63;;;6.00;;
8938;SDS011;4504;48.810;9.172;2023-11-21T13:06:24;118.68;;;5.30;;
8938;SDS011;4504;48.810;9.172;2023-11-21T13:08:51;118.07;;;5.00;;
8938;SDS011;4504;48.810;9.172;2023-11-21T13:11:20;118.32;;;5.00;;
8938;SDS011;4504;48.810;9.172;2023-11-21T13:13:51;120.60;;;5.40;;
8938;SDS011;4504;48.810;9.172;2023-11-21T13:16:19;121.78;;;5.50;;
8938;SDS011;4504;48.810;9.172;2023-11-21T13:18:47;121.53;;;5.28;;
8938;SDS011;4504;48.810;9.172;2023-11-21T13:21:14;123.07;;;5.70;;
8938;SDS011;4504;48.810;9.172;2023-11-21T13:23:42;126.60;;;5.60;;
8938;SDS011;4504;48.810;9.172;2023-11-21T13:26:11;123.00;;;5.50;;
8938;SDS011;4504;48.810;9.172;2023-11-21T13:28:39;124.45;;;5.80;;
8938;SDS011;4504;48.810;9.172;2023-11-21T13:31:12;123.95;;;5.50;;
8938;SDS011;4504;48.810;9.172;2023-11-21T13:33:51;123.75;;;5.47;;
8938;SDS011;4504;48.810;9.172;2023-11-21T13:36:21;123.68;;;5.50;;
8938;SDS011;4504;48.810;9.172;2023-11-21T13:38:49;122.95;;;6.32;;
8938;SDS011;4504;48.810;9.172;2023-11-21T13:41:17;123.18;;;5.80;;
8938;SDS011;4504;48.810;9.172;2023-11-21T13:43:45;120.97;;;5.45;;
8938;SDS011;4504;48.810;9.172;2023-11-21T13:46:19;121.72;;;5.30;;
8938;SDS011;4504;48.810;9.172;2023-11-21T13:48:48;121.20;;;5.60;;
8938;SDS011;4504;48.810;9.172;2023-11-21T13:51:21;121.88;;;6.00;;
8938;SDS011;4504;48.810;9.172;2023-11-21T13:53:56;121.75;;;5.90;;
8938;SDS011;4504;48.810;9.172;2023-11-21T13:56:24;121.93;;;5.90;;
8938;SDS011;4504;48.810;9.172;2023-11-21T13:58:53;120.80;;;5.65;;
8938;SDS011;4504;48.810;9.172;2023-11-21T14:01:22;120.70;;;5.85;;
8938;SDS011;4504;48.810;9.172;2023-11-21T14:04:13;119.97;;;5.95;;
8938;SDS011;4504;48.810;9.172;2023-11-21T14:06:45;120.38;;;5.60;;
8938;SDS011;4504;48.810;9.172;2023-11-21T14:09:14;119.97;;;5.45;;
8938;SDS011;4504;48.810;9.172;2023-11-21T14:11:48;120.57;;;5.40;;
8938;SDS011;4504;48.810;9.172;2023-11-21T14:14:17;120.22;;;6.15;;
8938;SDS011;4504;48.810;9.172;2023-11-21T14:16:46;119.47;;;5.28;;
8938;SDS011;4504;48.810;9.172;2023-11-21T14:19:13;122.15;;;5.90;;
8938;SDS011;4504;48.810;9.172;2023-11-21T14:21:42;118.97;;;5.20;;
8938;SDS011;4504;48.810;9.172;2023-11-21T14:24:10;118.13;;;5.80;;
8938;SDS011;4504;48.810;9.172;2023-11-21T14:26:39;119.25;;;5.10;;
8938;SDS011;4504;48.810;9.172;2023-11-21T14:29:07;119.75;;;5.32;;
8938;SDS011;4504;48.810;9.172;2023-11-21T14:31:34;118.75;;;5.00;;
8938;SDS011;4504;48.810;9.172;2023-11-21T14:34:03;118.97;;;5.15;;
8938;SDS011;4504;48.810;9.172;2023-11-21T14:36:32;118.03;;;5.22;;
8938;SDS011;4504;48.810;9.172;2023-11-21T14:38:59;122.50;;;5.22;;
8938;SDS011;4504;48.810;9.172;2023-11-21T14:41:26;117.22;;;5.00;;
8938;SDS011;4504;48.810;9.172;2023-11-21T14:43:54;117.22;;;4.85;;
8938;SDS011;4504;48.810;9.172;2023-11-21T14:46:22;119.13;;;5.13;;
8938;SDS011;4504;48.810;9.172;2023-11-21T14:48:50;117.85;;;4.90;;
8938;SDS011;4504;48.810;9.172;2023-11-21T14:51:27;118.18;;;4.90;;
8938;SDS011;4504;48.810;9.172;2023-11-21T14:53:56;118.13;;;4.90;;
8938;SDS011;4504;48.810;9.172;2023-11-21T14:56:31;117.32;;;5.18;;
8938;SDS011;4504;48.810;9.172;2023-11-21T14:59:00;118.07;;;4.70;;